Sequoia / Kings National Park, CA

9:45 PM PDT on August 30, 2015 (GMT -0700)
Bishop | | Change Station
CLOSE
Current Station
Airport
Location: Bishop,
Elevation: 4144 ft
Nearby Weather Stations

Elev 4144 ft 37.37 °N, 118.36 °W | Updated 49 minutes ago

Mostly Cloudy
Mostly Cloudy
74 °F
Feels Like 74 °F
N
8
Wind Variable Wind from NNW

Today
High -- | Low -- °F
--% Chance of Precip.
Yesterday
High -- | Low -- °F
Precip. -- in
6:22 AM 7:25 PM
Full, 97% visible
Pressure 29.76 in
Visibility 5.0 miles
Clouds Mostly Cloudy 4400 ft
Dew Point 36 °F
Humidity 25%
Rainfall 0.00 in
Snow Depth Not available.
UV 0 out of 12
Pollen 8.80 out of 12
Air Quality Not available.
Flu Activity Not available.
METAR KBIH 310356Z AUTO 34007KT 5SM HZ BKN044 23/02 A2991 RMK AO2 SLP077 T02330022
Pressure 29.76 in
Visibility 5.0 miles
Clouds Mostly Cloudy 4400 ft
Dew Point 36 °F
Humidity 25%
Rainfall 0.00 in
Snow Depth Not available.
UV 0 out of 12
Pollen 8.80 out of 12
Air Quality Not available.
Flu Activity Not available.
METAR KBIH 310356Z AUTO 34007KT 5SM HZ BKN044 23/02 A2991 RMK AO2 SLP077 T02330022

10-Day Weather Forecast

×

Almanac

Astronomy

Aug. 30, 2015 Rise Set
Actual Time
Civil Twilight
Nautical Twilight
Astronomical Twilight
Moon
Length of Visible Light
Length of Day
Tomorrow will be .
, % of the Moon is Illuminated

Today's Extremes

State Highs State Lows

Community

WunderPhotos

Upload Photos

1,851,207 photos uploaded!

WunderBlogs® & News

Nearby

Air Quality

  Air Quality AQ Index Pollutant
Not available.

Snow Depth

Station Depth Elevation

Earthquake Activity

City Distance Mag. Time & Date
Minimum magnitude displayed is 2.5.

Coastal Water Temperatures

Place Temperature

Stations

Nearby Weather Stations

Station Location Temp. Windchill Dew Point Humidity Wind Precip. Elev Updated Type